Meteorología y climatología de Navarra
Datos de la estación - Meteo Navarra

Estación de Doneztebe-Santesteban GN

Altitud 125 m.


Datos desde el 09/11/2019 hasta el 10/11/2019 en horario solar
Los datos son PROVISIONALES

Anterior Página 1 de 1 Siguiente Descargar: Formato para Excel 2000 o superior   Formato csv   Formato para OpenOffice Calc
Fecha Temperatura Humedad relativa Radiación global Insolación Precipitación Vel. viento 10 m Vel. viento 10 m Dir. viento 10 m
ºC % W/m² s l/m² m/s km/h º
09/11/2019 0:00 7.6 96 0.0 0 0.1 0.9 3.1 77
09/11/2019 0:10 7.6 97 0.0 0 0.1 0.9 3.2 265
09/11/2019 0:20 7.7 97 0.0 0 0.1 0.2 0.7 328
09/11/2019 0:30 7.8 98 0.0 0 0.1 1.3 4.6 285
09/11/2019 0:40 8.1 97 0.0 0 0.0 1.0 3.6 288
09/11/2019 0:50 8.1 96 0.0 0 0.1 0.6 2.2 257
09/11/2019 1:00 8.1 97 0.0 0 0.3 1.4 5.0 276
09/11/2019 1:10 8.4 93 0.0 0 0.4 2.0 7.3 278
09/11/2019 1:20 8.4 92 0.0 0 0.0 0.6 2.2 231
09/11/2019 1:30 8.1 96 0.0 0 0.7 1.0 3.7 272
09/11/2019 1:40 7.9 97 0.0 0 1.1 0.6 2.2 274
09/11/2019 1:50 7.7 97 0.0 0 0.9 0.6 2.2 264
09/11/2019 2:00 7.7 97 0.0 0 0.8 0.7 2.6 150
09/11/2019 2:10 7.7 98 0.0 0 0.2 1.1 4.0 272
09/11/2019 2:20 7.6 98 0.0 0 0.0 0.5 1.7 359
09/11/2019 2:30 7.6 98 0.0 0 0.0 0.6 2.3 340
09/11/2019 2:40 7.4 98 0.0 0 0.2 0.5 1.7 137
09/11/2019 2:50 7.4 98 0.0 0 0.3 0.4 1.3 269
09/11/2019 3:00 7.5 99 0.0 0 0.1 0.1 0.4 322
09/11/2019 3:10 7.5 99 0.0 0 0.0 0.4 1.5 114
09/11/2019 3:20 7.5 99 0.0 0 0.9 0.2 0.8 129
09/11/2019 3:30 7.5 99 0.0 0 1.2 0.7 2.6 72
09/11/2019 3:40 7.5 99 0.0 0 0.4 1.2 4.2 142
09/11/2019 3:50 7.5 99 0.0 0 0.7 1.2 4.3 116
09/11/2019 4:00 7.6 99 0.0 0 0.0 1.5 5.5 133
09/11/2019 4:10 7.6 99 0.0 0 0.0 1.5 5.4 131
09/11/2019 4:20 7.6 99 0.0 0 0.0 1.9 6.7 207
09/11/2019 4:30 7.7 99 0.0 0 0.5 0.7 2.4 191
09/11/2019 4:40 7.6 99 0.0 0 0.8 0.4 1.5 307
09/11/2019 4:50 7.6 99 0.0 0 0.1 0.0 0.0 116
09/11/2019 5:00 7.6 99 0.0 0 0.0 0.2 0.9 38
09/11/2019 5:10 7.5 99 0.0 0 0.0 0.5 1.7 359
09/11/2019 5:20 7.7 99 0.0 0 0.9 0.6 2.3 218
09/11/2019 5:30 7.7 99 0.0 0 0.5 1.4 4.9 86
09/11/2019 5:40 7.7 99 0.0 0 0.3 1.8 6.5 120
09/11/2019 5:50 7.8 99 0.0 0 0.1 1.0 3.6 172
09/11/2019 6:00 7.8 99 0.0 0 0.3 1.0 3.5 134
09/11/2019 6:10 7.8 99 0.0 0 0.1 1.2 4.1 124
09/11/2019 6:20 7.8 99 0.0 0 0.1 1.2 4.4 142
09/11/2019 6:30 7.8 99 0.0 0 0.2 0.4 1.4 137
09/11/2019 6:40 7.9 99 0.0 0 0.2 1.1 4.1 143
09/11/2019 6:50 7.8 99 0.0 0 0.1 0.8 2.8 117
09/11/2019 7:00 7.9 99 0.0 0 0.0 0.2 0.8 106
09/11/2019 7:10 7.8 99 0.0 0 0.0 0.1 0.2 49
09/11/2019 7:20 7.9 99 5.6 0 0.2 0.8 2.7 304
09/11/2019 7:30 7.9 99 0.2 0 0.0 0.4 1.4 295
09/11/2019 7:40 7.9 99 0.0 0 0.1 0.1 0.5 265
09/11/2019 7:50 7.9 99 7.2 0 0.0 0.8 2.8 129
09/11/2019 8:00 8.0 99 25.4 0 0.0 0.8 3.0 101
09/11/2019 8:10 8.1 100 38.6 0 0.0 0.3 1.1 117
09/11/2019 8:20 8.3 100 30.3 0 0.0 0.4 1.3 185
09/11/2019 8:30 8.3 100 24.2 0 0.0 0.2 0.8 108
09/11/2019 8:40 8.2 99 29.1 0 0.1 0.4 1.5 116
09/11/2019 8:50 8.3 100 44.2 0 0.0 0.7 2.5 113
09/11/2019 9:00 8.3 99 58.5 0 0.0 0.4 1.5 147
09/11/2019 9:10 8.5 100 62.6 0 0.0 0.2 0.7 168
09/11/2019 9:20 8.6 99 65.0 0 0.0 0.2 0.9 102
09/11/2019 9:30 8.7 99 63.9 0 0.0 0.0 0.0 190
09/11/2019 9:40 8.8 100 142.3 38 0.0 0.7 2.4 108
09/11/2019 9:50 9.1 100 169.3 152 0.0 0.4 1.4 115
09/11/2019 10:00 9.1 99 112.8 0 0.0 0.0 0.1 111
09/11/2019 10:10 9.0 99 156.0 0 0.0 0.2 0.7 300
09/11/2019 10:20 9.2 99 180.8 0 0.0 0.3 1.1 326
09/11/2019 10:30 9.2 99 338.8 532 0.0 0.1 0.2 233
09/11/2019 10:40 10.0 99 295.6 506 0.0 0.2 0.8 174
09/11/2019 10:50 9.6 97 199.5 0 0.0 0.5 1.7 196
09/11/2019 11:00 10.0 97 207.9 0 0.0 0.5 1.8 145
09/11/2019 11:10 10.3 97 207.0 0 0.0 0.1 0.3 214
09/11/2019 11:20 10.3 96 219.4 0 0.0 0.2 0.8 288
09/11/2019 11:30 10.3 95 167.8 0 0.0 0.2 0.9 299
09/11/2019 11:40 10.3 95 133.0 0 0.0 0.1 0.3 239
09/11/2019 11:50 10.2 94 167.8 0 0.0 0.2 0.5 351
09/11/2019 12:00 10.4 90 167.0 0 0.1 0.5 1.7 28
09/11/2019 12:10 10.8 88 135.6 0 0.0 0.2 0.8 356
09/11/2019 12:20 11.0 87 91.5 0 0.0 0.4 1.5 299
09/11/2019 12:30 11.1 89 113.1 0 0.1 0.2 0.8 264
09/11/2019 12:40 11.2 91 126.6 0 0.1 0.4 1.3 344
09/11/2019 12:50 11.1 83 110.4 0 0.0 1.3 4.8 312
09/11/2019 13:00 11.0 75 120.0 0 0.0 1.6 5.9 299
09/11/2019 13:10 10.9 79 167.2 0 0.1 1.4 5.0 332
09/11/2019 13:20 11.0 80 170.8 0 0.0 1.2 4.4 331
09/11/2019 13:30 11.4 77 166.8 0 0.0 1.1 4.0 339
09/11/2019 13:40 11.4 75 55.1 0 0.0 0.7 2.6 316
09/11/2019 13:50 11.1 76 24.9 0 0.3 3.0 10.7 308
09/11/2019 14:00 10.5 81 26.3 0 0.7 1.5 5.5 309
09/11/2019 14:10 10.1 86 37.3 0 0.3 0.9 3.2 43
09/11/2019 14:20 9.8 89 27.5 0 0.3 1.8 6.5 8
09/11/2019 14:30 9.6 90 31.5 0 0.4 2.2 8.0 305
09/11/2019 14:40 9.8 86 18.8 0 1.1 2.4 8.8 316
09/11/2019 14:50 9.5 91 26.9 0 0.2 0.9 3.3 302
09/11/2019 15:00 9.4 94 37.9 0 0.3 1.0 3.7 298
09/11/2019 15:10 9.5 95 32.8 0 0.1 1.3 4.8 318
09/11/2019 15:20 9.5 96 23.8 0 0.1 1.1 4.1 311
09/11/2019 15:30 9.4 96 18.4 0 0.1 1.0 3.6 314
09/11/2019 15:40 9.4 97 15.3 0 0.0 0.8 2.8 234
09/11/2019 15:50 9.3 97 7.0 0 0.1 0.6 2.1 112
09/11/2019 16:00 9.4 97 0.0 0 0.0 1.8 6.3 128
09/11/2019 16:10 9.3 97 0.0 0 0.0 2.5 8.9 128
09/11/2019 16:20 9.3 97 0.0 0 0.0 2.3 8.4 127
09/11/2019 16:30 9.3 97 0.0 0 0.0 2.2 7.7 138
09/11/2019 16:40 9.4 97 0.0 0 0.0 1.0 3.7 117
09/11/2019 16:50 9.5 97 0.0 0 0.1 1.1 4.0 133
09/11/2019 17:00 9.6 97 0.0 0 0.0 1.2 4.1 121
09/11/2019 17:10 9.5 98 0.0 0 0.0 1.0 3.5 123
09/11/2019 17:20 9.6 98 0.0 0 0.1 0.8 2.9 117
09/11/2019 17:30 9.7 98 0.0 0 0.3 0.7 2.6 124
09/11/2019 17:40 9.8 98 0.0 0 0.1 1.3 4.6 80
09/11/2019 17:50 9.8 98 0.0 0 0.1 0.9 3.3 153
09/11/2019 18:00 9.8 98 0.0 0 0.1 1.1 4.1 174
09/11/2019 18:10 9.8 99 0.0 0 0.2 1.2 4.2 292
09/11/2019 18:20 9.8 96 0.0 0 0.3 1.1 4.0 302
09/11/2019 18:30 9.8 96 0.0 0 0.9 1.0 3.6 271
09/11/2019 18:40 9.7 96 0.0 0 0.8 0.9 3.4 254
09/11/2019 18:50 9.7 91 0.0 0 0.9 1.6 5.9 294
09/11/2019 19:00 9.6 93 0.0 0 1.0 1.2 4.4 307
09/11/2019 19:10 9.5 92 0.0 0 1.7 2.6 9.2 291
09/11/2019 19:20 9.5 85 0.0 0 2.3 4.4 15.8 301
09/11/2019 19:30 9.2 81 0.0 0 1.1 3.6 13.0 314
09/11/2019 19:40 8.5 86 0.0 0 0.8 1.0 3.5 277
09/11/2019 19:50 8.0 94 0.0 0 0.9 1.0 3.7 157
09/11/2019 20:00 7.9 95 0.0 0 1.0 0.5 1.6 79
09/11/2019 20:10 7.8 96 0.0 0 0.9 0.5 1.8 153
09/11/2019 20:20 7.8 97 0.0 0 0.5 0.9 3.1 131
09/11/2019 20:30 7.7 98 0.0 0 0.3 0.2 0.8 141
09/11/2019 20:40 7.7 98 0.0 0 0.4 0.8 2.9 258
09/11/2019 20:50 7.8 98 0.0 0 1.1 1.1 4.0 279
09/11/2019 21:00 7.8 98 0.0 0 0.5 1.4 5.1 300
09/11/2019 21:10 7.5 98 0.0 0 0.2 1.2 4.2 269
09/11/2019 21:20 7.6 95 0.0 0 0.0 1.6 5.7 19
09/11/2019 21:30 7.7 96 0.0 0 0.3 0.4 1.4 223
09/11/2019 21:40 7.6 97 0.0 0 0.5 1.3 4.6 135
09/11/2019 21:50 7.6 98 0.0 0 0.3 1.1 4.1 98
09/11/2019 22:00 7.6 97 0.0 0 0.3 1.0 3.5 163
09/11/2019 22:10 7.6 98 0.0 0 0.2 0.8 2.8 121
09/11/2019 22:20 7.6 98 0.0 0 0.2 0.7 2.4 60
09/11/2019 22:30 7.5 98 0.0 0 0.1 1.4 5.1 37
09/11/2019 22:40 7.5 98 0.0 0 0.0 0.4 1.3 43
09/11/2019 22:50 7.2 98 0.0 0 0.0 0.5 1.9 324
09/11/2019 23:00 7.0 98 0.0 0 0.0 0.4 1.3 151
09/11/2019 23:10 6.9 98 0.0 0 0.0 0.4 1.5 142
09/11/2019 23:20 6.7 99 0.0 0 0.0 0.9 3.2 124
09/11/2019 23:30 6.7 99 0.0 0 0.0 2.2 7.8 134
09/11/2019 23:40 6.9 99 0.0 0 0.0 1.7 6.0 140
09/11/2019 23:50 6.8 99 0.0 0 0.0 1.0 3.4 133
Anterior Página 1 de 1 Siguiente

NOTA: Tipo de datos según el color:
   - Valores diarios o 10 minutos correctos
   - Valores diarios calculados a partir de un número de datos 10 minutos menor que 144 y mayor que 120, o de un número de datos semihorarios menor que 48 y mayor que 40 (caso de las estaciones de Riegos de Navarra y del MARM)
   - Valores diez minutos estimados


Contacto        Enlaces        Aviso legal